SBOSBO ABV / DNAA
Speedbird OnlineSpeedbird Online ABV / DNAA

Nnamdi Azikiwe International Airport
22:24 31°C

Location Abuja, Nigeria
Latitude: 9.006790161132812
Longitude: 7.263169765472412
Local Time 22:24 on 20 May 2024
UTC +1 hours (Africa/Lagos)
Currency £1 equals NGN 1,899.44
METAR DNAA 202100Z 19006KT 9999 FEW012 31/25 Q1012 NOSIG
TAF TAF DNAA 201700Z 2018/2124 VRB02KT 9999 FEW015 PROB30 TEMPO 2018/2021 TS FEW013 FEW020CB TEMPO 2102/2106 08015KT TS SCT010 FEW019CB BECMG 2108/2111 BKN012
Weather As Of 20 May 2024 22:24
Description Few clouds
Wind 11 km/h from South (190°)
Cloud Cover 20%
Precipitation Rain: none, Snow: none
Sunrise 06:10
Sunset 18:44
NOTAM 1 active NOTAM
Rotations During the last 90 days there were
82 flights from LHR
81 flights to LHR
Lounges SDS Executive Lounge, International Terminal
FAAN Executive VIP Lounge, International Terminal
Web Airport Website | Wikipedia
Codes IATA: ABV
ICAO: DNAA
Altitude 342 Meter / 1123 Feet
Distance 4,770 KM / 2,964 Miles
from London.
Runways
RunwayLength (m)Surface
043609Asphalt
223609Asphalt
Radio
TypeDescriptionFrequency
APPAPP127.9
ATISATIS127.05
GND121.9
TWRTWR118.6
Live ATC



Support Speedbird Online

© 2017-2024 Speedbird Online